Time;durP1;ratioP1;P1;durP2;ratioP2;P2;SDS_P1;SDS_P2;PMS_P1;PMS_P2;Temp;Humidity;BMP_temperature;BMP_pressure;BME280_temperature;BME280_humidity;BME280_pressure;Samples;Min_cycle;Max_cycle;Signal;HPM_P1;HPM_P2
2024/05/02 00:01:18;;;;;;;;;;;;;;;14.22;100.00;101244.69;5453893;26;19944;-63
2024/05/02 00:03:43;;;;;;;;;;;;;;;14.10;100.00;101233.81;5453552;26;19928;-62
2024/05/02 00:06:10;;;;;;;;;;;;;;;14.22;100.00;101234.03;5454167;26;19960;-60
2024/05/02 00:08:35;;;;;;;;;;;;;;;14.24;100.00;101224.34;5459906;26;20008;-60
2024/05/02 00:11:00;;;;;;;;;;;;;;;14.06;100.00;101226.63;5459767;26;19966;-60
2024/05/02 00:13:25;;;;;;;;;;;;;;;13.96;100.00;101222.91;5460034;26;20561;-61
2024/05/02 00:15:51;;;;;;;;;;;;;;;14.08;100.00;101220.47;5458397;26;20555;-62
2024/05/02 00:18:16;;;;;;;;;;;;;;;14.05;100.00;101214.19;5465257;26;19958;-61
2024/05/02 00:20:41;;;;;;;;;;;;;;;14.00;100.00;101213.22;5456908;26;20009;-60
2024/05/02 00:23:06;;;;;;;;;;;;;;;13.87;100.00;101210.28;5451253;26;19962;-61
2024/05/02 00:25:31;;;;;;;;;;;;;;;14.03;100.00;101205.28;5456266;26;20010;-59
2024/05/02 00:27:57;;;;;;;;;;;;;;;13.87;100.00;101210.28;5449214;26;19940;-61
2024/05/02 00:30:22;;;;;;;;;;;;;;;13.90;100.00;101205.03;5460606;26;20014;-60
2024/05/02 00:32:47;;;;;;;;;;;;;;;13.84;100.00;101194.31;5459879;26;19935;-60
2024/05/02 00:35:14;;;;;;;;;;;;;;;13.94;100.00;101196.28;5459324;26;20050;-60
2024/05/02 00:37:39;;;;;;;;;;;;;;;13.84;100.00;101191.66;5458980;26;19928;-60
2024/05/02 00:40:04;;;;;;;;;;;;;;;13.91;100.00;101190.91;5450092;26;19960;-60
2024/05/02 00:42:32;;;;;;;;;;;;;;;13.90;100.00;101191.75;5452835;26;19928;-60
2024/05/02 00:44:57;;;;;;;;;;;;;;;13.94;100.00;101190.97;5449677;26;19928;-60
2024/05/02 00:47:23;;;;;;;;;;;;;;;13.84;100.00;101181.03;5451785;26;19928;-60
2024/05/02 00:49:48;;;;;;;;;;;;;;;13.90;100.00;101188.22;5460135;26;19969;-60
2024/05/02 00:52:13;;;;;;;;;;;;;;;13.89;100.00;101182.00;5440910;26;19944;-60
2024/05/02 00:54:39;;;;;;;;;;;;;;;13.84;100.00;101181.03;5450700;26;19939;-60
2024/05/02 00:57:04;;;;;;;;;;;;;;;13.80;100.00;101179.16;5458615;26;19936;-58
2024/05/02 00:59:29;;;;;;;;;;;;;;;13.86;100.00;101181.94;5445319;26;19972;-60
2024/05/02 01:01:55;;;;;;;;;;;;;;;13.88;100.00;101174.00;5444957;26;19971;-61
2024/05/02 01:04:20;;;;;;;;;;;;;;;13.63;100.00;101140.72;5443228;26;19977;-60
2024/05/02 01:06:50;;;;;;;;;;;;;;;13.76;100.00;101171.09;5447873;26;19966;-59
2024/05/02 01:09:15;;;;;;;;;;;;;;;13.67;100.00;101169.16;5451824;26;20012;-60
2024/05/02 01:11:40;;;;;;;;;;;;;;;13.64;100.00;101153.13;5446230;26;20012;-61
2024/05/02 01:14:05;;;;;;;;;;;;;;;13.76;100.00;101158.69;5444356;26;20357;-61
2024/05/02 01:16:30;;;;;;;;;;;;;;;13.79;100.00;101157.88;5454769;26;20277;-60
2024/05/02 01:18:55;;;;;;;;;;;;;;;13.74;100.00;101159.53;5458608;26;19928;-60
2024/05/02 01:21:21;;;;;;;;;;;;;;;13.63;100.00;101159.31;5439570;26;19971;-61
2024/05/02 01:23:46;;;;;;;;;;;;;;;13.67;100.00;101157.63;5455909;26;19941;-60
2024/05/02 01:26:11;;;;;;;;;;;;;;;13.68;100.00;101165.59;5444532;26;19962;-60
2024/05/02 01:28:36;;;;;;;;;;;;;;;13.70;100.00;101152.34;5453080;26;19995;-60
2024/05/02 01:31:01;;;;;;;;;;;;;;;13.67;100.00;101154.97;5451965;26;20429;-60
2024/05/02 01:33:27;;;;;;;;;;;;;;;13.71;100.00;101151.50;5457553;26;19958;-62
2024/05/02 01:35:52;;;;;;;;;;;;;;;13.74;100.00;101144.47;5451354;26;19935;-60
2024/05/02 01:38:17;;;;;;;;;;;;;;;13.67;100.00;101150.56;5449109;26;19940;-62
2024/05/02 01:40:42;;;;;;;;;;;;;;;13.69;100.00;101151.44;5463277;26;19971;-60
2024/05/02 01:43:07;;;;;;;;;;;;;;;13.55;100.00;101158.25;5458311;26;20531;-62
2024/05/02 01:45:32;;;;;;;;;;;;;;;13.72;100.00;101146.22;5458392;26;19929;-60
2024/05/02 01:47:58;;;;;;;;;;;;;;;13.69;100.00;101150.56;5454254;26;20499;-61
2024/05/02 01:50:23;;;;;;;;;;;;;;;13.71;100.00;101143.53;5421290;26;19985;-62
2024/05/02 01:52:48;;;;;;;;;;;;;;;13.76;100.00;101145.41;5457510;26;19965;-61
2024/05/02 01:55:13;;;;;;;;;;;;;;;13.62;100.00;101144.25;5465097;26;19936;-59
2024/05/02 01:57:38;;;;;;;;;;;;;;;13.69;100.00;101140.81;5447425;26;19934;-60
2024/05/02 02:00:04;;;;;;;;;;;;;;;13.60;100.00;101135.34;5448482;26;19952;-61
2024/05/02 02:02:29;;;;;;;;;;;;;;;13.75;100.00;101129.44;5446920;26;19936;-59
2024/05/02 02:04:54;;;;;;;;;;;;;;;13.63;100.00;101130.09;5458468;26;20361;-59
2024/05/02 02:07:20;;;;;;;;;;;;;;;13.56;100.00;101126.41;5464151;26;19984;-60
2024/05/02 02:09:45;;;;;;;;;;;;;;;13.64;100.00;101125.69;5442146;26;19937;-61
2024/05/02 02:12:10;;;;;;;;;;;;;;;13.63;100.00;101124.78;5445189;26;19928;-60
2024/05/02 02:14:36;;;;;;;;;;;;;;;13.62;100.00;101117.69;5449606;26;20521;-61
2024/05/02 02:17:01;;;;;;;;;;;;;;;13.60;100.00;101119.41;5444767;26;20052;-60
2024/05/02 02:19:26;;;;;;;;;;;;;;;13.51;100.00;101108.56;5455787;26;19935;-62
2024/05/02 02:21:51;;;;;;;;;;;;;;;13.54;100.00;101114.84;5463329;26;19970;-61
2024/05/02 02:24:17;;;;;;;;;;;;;;;13.57;100.00;101108.72;5458492;26;20383;-60
2024/05/02 02:26:42;;;;;;;;;;;;;;;13.46;100.00;101104.94;5441894;26;19943;-59
2024/05/02 02:29:07;;;;;;;;;;;;;;;13.43;100.00;101094.25;5454193;26;19935;-60
2024/05/02 02:31:32;;;;;;;;;;;;;;;13.49;100.00;101102.34;5467189;26;20319;-61
2024/05/02 02:33:57;;;;;;;;;;;;;;;13.58;100.00;101099.88;5449541;26;19981;-61
2024/05/02 02:36:23;;;;;;;;;;;;;;;13.47;100.00;101096.13;5459849;26;19956;-60
2024/05/02 02:38:48;;;;;;;;;;;;;;;13.48;100.00;101097.91;5455503;26;19947;-59
2024/05/02 02:41:13;;;;;;;;;;;;;;;13.54;100.00;101098.91;5461784;26;20021;-59
2024/05/02 02:43:42;;;;;;;;;;;;;;;13.54;100.00;101095.38;5450732;26;19959;-59
2024/05/02 02:46:07;;;;;;;;;;;;;;;13.53;100.00;101088.25;5455418;26;19989;-61
2024/05/02 02:48:32;;;;;;;;;;;;;;;13.48;100.00;101089.94;5448213;26;20415;-61
2024/05/02 02:50:58;;;;;;;;;;;;;;;13.27;100.00;101089.47;5452374;26;19959;-60
2024/05/02 02:53:23;;;;;;;;;;;;;;;13.27;100.00;101077.09;5437852;26;20018;-62
2024/05/02 02:55:48;;;;;;;;;;;;;;;13.36;100.00;101077.28;5444815;26;19990;-59
2024/05/02 02:58:13;;;;;;;;;;;;;;;13.38;100.00;101075.56;5442099;26;20523;-59
2024/05/02 03:00:38;;;;;;;;;;;;;;;13.26;100.00;101074.41;5450293;26;20373;-60
2024/05/02 03:03:04;;;;;;;;;;;;;;;13.40;100.00;101067.63;5450111;26;19986;-59
2024/05/02 03:05:29;;;;;;;;;;;;;;;13.24;100.00;101066.41;5448051;26;19941;-60
2024/05/02 03:07:54;;;;;;;;;;;;;;;13.26;100.00;101066.44;5447936;26;20388;-59
2024/05/02 03:10:19;;;;;;;;;;;;;;;13.33;100.00;101071.03;5457514;26;19940;-62
2024/05/02 03:12:48;;;;;;;;;;;;;;;13.28;100.00;101064.72;5448375;26;19974;-60
2024/05/02 03:15:13;;;;;;;;;;;;;;;13.05;100.00;101073.03;5436972;26;19935;-61
2024/05/02 03:17:38;;;;;;;;;;;;;;;13.09;100.00;101061.66;5443877;26;19998;-59
2024/05/02 03:20:04;;;;;;;;;;;;;;;12.97;100.00;101072.00;5441003;26;19928;-59
2024/05/02 03:22:29;;;;;;;;;;;;;;;12.93;100.00;101067.47;5447777;26;19994;-59
2024/05/02 03:24:54;;;;;;;;;;;;;;;12.83;100.00;101070.75;5455327;26;19971;-60
2024/05/02 03:27:19;;;;;;;;;;;;;;;12.80;100.00;101073.38;5450180;26;19974;-60
2024/05/02 03:29:45;;;;;;;;;;;;;;;12.74;100.00;101074.09;5440256;26;20504;-59
2024/05/02 03:32:10;;;;;;;;;;;;;;;12.70;100.00;101088.16;5434714;26;20021;-59
2024/05/02 03:34:35;;;;;;;;;;;;;;;12.82;100.00;101071.63;5433684;26;19982;-59
2024/05/02 03:37:00;;;;;;;;;;;;;;;12.80;100.00;101079.56;5428610;26;20059;-60
2024/05/02 03:39:25;;;;;;;;;;;;;;;12.72;100.00;101074.94;5435892;26;19972;-59
2024/05/02 03:41:52;;;;;;;;;;;;;;;12.77;100.00;101078.59;5441355;26;19962;-61
2024/05/02 03:44:17;;;;;;;;;;;;;;;12.69;100.00;101070.44;5437347;26;20510;-63
2024/05/02 03:46:42;;;;;;;;;;;;;;;12.71;100.00;101063.41;5446619;26;19966;-60
2024/05/02 03:49:07;;;;;;;;;;;;;;;12.70;100.00;101071.34;5450254;26;20038;-59
2024/05/02 03:51:33;;;;;;;;;;;;;;;12.60;100.00;101064.03;5447386;26;19929;-60
2024/05/02 03:53:58;;;;;;;;;;;;;;;12.67;100.00;101065.97;5429081;26;19982;-61
2024/05/02 03:56:23;;;;;;;;;;;;;;;12.51;100.00;101076.19;5437162;26;20356;-61
2024/05/02 03:58:48;;;;;;;;;;;;;;;12.54;100.00;101070.97;5459327;26;19979;-62
2024/05/02 04:01:14;;;;;;;;;;;;;;;12.69;100.00;101069.53;5448780;26;20268;-59
2024/05/02 04:03:39;;;;;;;;;;;;;;;12.65;100.00;101067.66;5464707;26;19970;-59
2024/05/02 04:06:06;;;;;;;;;;;;;;;12.61;100.00;101064.06;5451397;26;19971;-62
2024/05/02 04:08:31;;;;;;;;;;;;;;;12.61;100.00;101060.53;5452502;26;19952;-60
2024/05/02 04:10:57;;;;;;;;;;;;;;;12.64;100.00;101063.25;5425278;26;19929;-60
2024/05/02 04:13:22;;;;;;;;;;;;;;;12.59;100.00;101054.28;5446968;26;19928;-60
2024/05/02 04:15:47;;;;;;;;;;;;;;;12.62;100.00;101063.22;5458553;26;20266;-60
2024/05/02 04:18:12;;;;;;;;;;;;;;;12.64;100.00;101055.31;5441633;26;19936;-60
2024/05/02 04:20:38;;;;;;;;;;;;;;;12.74;100.00;101057.28;5448171;26;19928;-59
2024/05/02 04:23:03;;;;;;;;;;;;;;;12.68;100.00;101062.44;5457170;26;20004;-59
2024/05/02 04:25:28;;;;;;;;;;;;;;;12.89;100.00;101062.94;5467432;26;19929;-60
2024/05/02 04:27:54;;;;;;;;;;;;;;;13.18;100.00;101061.84;5453047;26;20604;-60
2024/05/02 04:30:19;;;;;;;;;;;;;;;13.23;100.00;101054.00;5447253;26;19935;-60
2024/05/02 04:32:44;;;;;;;;;;;;;;;13.10;100.00;101055.47;5449820;26;19971;-61
2024/05/02 04:35:10;;;;;;;;;;;;;;;12.99;100.00;101062.28;5415367;26;20060;-61
2024/05/02 04:37:35;;;;;;;;;;;;;;;13.06;100.00;101056.25;5441916;26;19933;-62
2024/05/02 04:40:00;;;;;;;;;;;;;;;12.94;100.00;101058.66;5423577;26;19987;-60
2024/05/02 04:42:25;;;;;;;;;;;;;;;13.06;100.00;101050.06;5415157;26;19990;-61
2024/05/02 04:44:50;;;;;;;;;;;;;;;13.24;100.00;101051.38;5411279;26;20008;-65
2024/05/02 04:47:16;;;;;;;;;;;;;;;13.14;100.00;101049.38;5414201;26;19935;-61
2024/05/02 04:49:41;;;;;;;;;;;;;;;13.42;100.00;101049.97;5427168;26;19929;-65
2024/05/02 04:52:06;;;;;;;;;;;;;;;13.38;100.00;101046.34;5453775;26;19929;-62
2024/05/02 04:54:31;;;;;;;;;;;;;;;13.44;100.00;101043.84;5425848;26;20035;-63
2024/05/02 04:56:56;;;;;;;;;;;;;;;13.85;100.00;101047.28;5431151;26;19936;-61
2024/05/02 04:59:22;;;;;;;;;;;;;;;13.69;100.00;101039.00;5419141;26;19929;-62
2024/05/02 05:01:47;;;;;;;;;;;;;;;13.44;100.00;101037.63;5411627;26;19964;-60
2024/05/02 05:04:12;;;;;;;;;;;;;;;13.44;100.00;101040.28;5429758;26;19929;-62
2024/05/02 05:06:38;;;;;;;;;;;;;;;13.18;100.00;101045.03;5421541;26;19929;-62
2024/05/02 05:09:04;;;;;;;;;;;;;;;13.08;100.00;101045.69;5446975;26;19928;-61
2024/05/02 05:11:30;;;;;;;;;;;;;;;12.94;100.00;101050.69;5447235;26;19929;-61
2024/05/02 05:13:55;;;;;;;;;;;;;;;13.03;100.00;101034.97;5455072;26;19962;-61
2024/05/02 05:16:20;;;;;;;;;;;;;;;12.88;100.00;101040.81;5428930;26;19985;-63
2024/05/02 05:18:45;;;;;;;;;;;;;;;13.10;100.00;101036.91;5422404;26;19933;-60
2024/05/02 05:21:11;;;;;;;;;;;;;;;13.09;100.00;101040.41;5411725;26;19929;-61
2024/05/02 05:23:36;;;;;;;;;;;;;;;13.22;100.00;101026.56;5419156;26;20411;-62
2024/05/02 05:26:01;;;;;;;;;;;;;;;13.13;100.00;101029.00;5411164;26;19929;-62
2024/05/02 05:28:26;;;;;;;;;;;;;;;13.49;100.00;101020.03;5411274;26;19941;-65
2024/05/02 05:30:52;;;;;;;;;;;;;;;13.80;100.00;101017.09;5419934;26;19937;-61
2024/05/02 05:33:17;;;;;;;;;;;;;;;14.09;100.00;101020.25;5411370;26;19933;-63
2024/05/02 05:35:43;;;;;;;;;;;;;;;14.38;100.00;101012.75;5418096;26;19929;-61
2024/05/02 05:38:08;;;;;;;;;;;;;;;14.36;100.00;101009.19;5424215;26;19978;-61
2024/05/02 05:40:33;;;;;;;;;;;;;;;14.40;100.00;101016.38;5417766;26;19963;-61
2024/05/02 05:42:58;;;;;;;;;;;;;;;14.84;100.00;101003.75;5419752;26;20020;-61
2024/05/02 05:45:25;;;;;;;;;;;;;;;15.51;100.00;100995.69;5432094;26;20465;-62
2024/05/02 05:47:50;;;;;;;;;;;;;;;17.22;100.00;100974.81;5411509;26;19971;-61
2024/05/02 05:50:15;;;;;;;;;;;;;;;17.60;100.00;100966.00;5415313;26;19998;-63
2024/05/02 05:52:41;;;;;;;;;;;;;;;17.47;100.00;100972.22;5422766;26;20013;-62
2024/05/02 05:55:06;;;;;;;;;;;;;;;17.46;100.00;100962.41;5411149;26;19929;-61
2024/05/02 05:57:31;;;;;;;;;;;;;;;16.92;100.00;100969.34;5379464;26;20369;-63
2024/05/02 05:59:56;;;;;;;;;;;;;;;17.04;100.00;100974.72;5411246;26;20011;-62
2024/05/02 06:02:21;;;;;;;;;;;;;;;17.06;100.00;100972.97;5411139;26;19979;-61
2024/05/02 06:04:47;;;;;;;;;;;;;;;16.94;100.00;100975.59;5411200;26;19932;-62
2024/05/02 06:07:12;;;;;;;;;;;;;;;17.07;100.00;100973.84;5414088;26;19929;-62
2024/05/02 06:09:37;;;;;;;;;;;;;;;17.14;100.00;100967.66;5423933;26;19937;-61
2024/05/02 06:12:02;;;;;;;;;;;;;;;16.66;100.00;100969.19;5436276;26;19936;-62
2024/05/02 06:14:27;;;;;;;;;;;;;;;17.03;100.00;100975.59;5410495;26;20031;-60
2024/05/02 06:16:53;;;;;;;;;;;;;;;16.84;100.00;100985.31;5410453;26;20413;-62
2024/05/02 06:19:18;;;;;;;;;;;;;;;17.26;100.00;100981.06;5410679;26;19936;-62
2024/05/02 06:21:43;;;;;;;;;;;;;;;17.35;100.00;100976.63;5410879;26;19928;-62
2024/05/02 06:24:08;;;;;;;;;;;;;;;17.35;100.00;100978.41;5411454;26;20002;-61
2024/05/02 06:26:33;;;;;;;;;;;;;;;17.55;100.00;100976.69;5413908;26;19957;-61
2024/05/02 06:28:58;;;;;;;;;;;;;;;17.99;100.00;100974.13;5422296;26;19933;-61
2024/05/02 06:31:24;;;;;;;;;;;;;;;18.20;100.00;100972.31;5388715;26;19929;-63
2024/05/02 06:33:49;;;;;;;;;;;;;;;17.72;100.00;100976.75;5410292;26;20353;-62
2024/05/02 06:36:14;;;;;;;;;;;;;;;18.19;100.00;100967.84;5410932;26;19937;-61
2024/05/02 06:38:39;;;;;;;;;;;;;;;18.27;100.00;100971.44;5424703;26;19937;-64
2024/05/02 06:41:04;;;;;;;;;;;;;;;18.43;100.00;100957.13;5422263;26;20281;-62
2024/05/02 06:43:35;;;;;;;;;;;;;;;18.44;100.00;100954.47;5411191;26;19936;-62
2024/05/02 06:46:01;;;;;;;;;;;;;;;18.37;100.00;100958.03;5419920;26;19936;-63
2024/05/02 06:48:26;;;;;;;;;;;;;;;18.56;100.00;100952.66;5410252;26;20590;-63
2024/05/02 06:50:51;;;;;;;;;;;;;;;18.94;100.00;100955.25;5431754;26;19986;-63
2024/05/02 06:53:16;;;;;;;;;;;;;;;19.16;100.00;100951.59;5410053;26;19933;-62
2024/05/02 06:55:42;;;;;;;;;;;;;;;19.35;100.00;100947.94;5432458;26;19959;-62
2024/05/02 06:58:07;;;;;;;;;;;;;;;19.02;100.00;100959.69;5413243;26;20429;-64
2024/05/02 07:00:32;;;;;;;;;;;;;;;19.24;100.00;100947.06;5409593;26;20442;-63
2024/05/02 07:02:58;;;;;;;;;;;;;;;19.31;100.00;100945.25;5409917;26;20344;-62
2024/05/02 07:05:23;;;;;;;;;;;;;;;19.31;100.00;100951.50;5409519;26;20277;-62
2024/05/02 07:07:48;;;;;;;;;;;;;;;19.53;100.00;100946.06;5412915;26;19929;-61
2024/05/02 07:10:13;;;;;;;;;;;;;;;19.69;100.00;100942.38;5406362;26;19937;-63
2024/05/02 07:12:38;;;;;;;;;;;;;;;20.03;100.00;100938.53;5417532;26;19986;-62
2024/05/02 07:15:04;;;;;;;;;;;;;;;20.20;100.00;100937.50;5426922;26;19928;-62
2024/05/02 07:17:29;;;;;;;;;;;;;;;20.25;100.00;100933.00;5438522;26;19955;-60
2024/05/02 07:19:54;;;;;;;;;;;;;;;20.22;100.00;100927.66;5444615;26;19974;-63
2024/05/02 07:22:20;;;;;;;;;;;;;;;20.37;100.00;100927.53;5427101;26;20341;-61
2024/05/02 07:24:45;;;;;;;;;;;;;;;20.16;100.00;100926.78;5429753;26;19936;-61
2024/05/02 07:27:10;;;;;;;;;;;;;;;20.12;100.00;100929.50;5443653;26;20361;-62
2024/05/02 07:29:35;;;;;;;;;;;;;;;20.21;100.00;100924.06;5430823;26;19935;-61
2024/05/02 07:32:00;;;;;;;;;;;;;;;20.39;100.00;100936.47;5437869;26;19936;-62
2024/05/02 07:34:25;;;;;;;;;;;;;;;20.57;100.00;100925.53;5426811;26;20368;-61
2024/05/02 07:36:51;;;;;;;;;;;;;;;20.75;100.00;100935.19;5417340;26;19936;-61
2024/05/02 07:39:16;;;;;;;;;;;;;;;20.73;100.00;100927.13;5423764;26;19929;-67
2024/05/02 07:41:41;;;;;;;;;;;;;;;21.03;100.00;100930.34;5427219;26;19936;-62
2024/05/02 07:44:06;;;;;;;;;;;;;;;21.06;100.00;100930.31;5414821;26;20442;-63
2024/05/02 07:46:31;;;;;;;;;;;;;;;21.30;100.00;100921.94;5425710;26;19929;-62
2024/05/02 07:48:57;;;;;;;;;;;;;;;21.61;100.00;100918.81;5436597;26;19960;-64
2024/05/02 07:51:22;;;;;;;;;;;;;;;21.63;100.00;100917.91;5426367;26;20484;-61
2024/05/02 07:53:48;;;;;;;;;;;;;;;21.45;100.00;100919.06;5433750;26;19933;-64
2024/05/02 07:56:16;;;;;;;;;;;;;;;20.78;100.00;100909.16;5424936;26;20375;-63
2024/05/02 07:58:41;;;;;;;;;;;;;;;20.97;100.00;100908.91;5417562;26;20458;-62
2024/05/02 08:01:06;;;;;;;;;;;;;;;21.37;100.00;100915.56;5433185;26;20437;-60
2024/05/02 08:03:32;;;;;;;;;;;;;;;21.43;100.00;100909.22;5410397;26;19936;-62
2024/05/02 08:05:57;;;;;;;;;;;;;;;21.63;100.00;100900.88;5426998;26;20294;-63
2024/05/02 08:08:22;;;;;;;;;;;;;;;21.99;100.00;100905.63;5443923;26;19944;-61
2024/05/02 08:10:49;;;;;;;;;;;;;;;21.78;100.00;100906.00;5443453;26;21260;-62
2024/05/02 08:13:14;;;;;;;;;;;;;;;21.95;100.00;100909.28;5417906;26;19936;-61
2024/05/02 08:15:39;;;;;;;;;;;;;;;21.54;100.00;100908.16;5413618;26;19972;-61
2024/05/02 08:18:05;;;;;;;;;;;;;;;21.94;100.00;100902.13;5431953;26;20355;-62
2024/05/02 08:20:30;;;;;;;;;;;;;;;21.86;100.00;100913.00;5419288;26;19929;-61
2024/05/02 08:22:55;;;;;;;;;;;;;;;22.29;100.00;100903.34;5445090;26;19928;-61
2024/05/02 08:25:21;;;;;;;;;;;;;;;22.37;100.00;100896.00;5419382;26;19963;-61
2024/05/02 08:27:46;;;;;;;;;;;;;;;22.56;100.00;100897.44;5460456;26;19928;-65
2024/05/02 08:30:11;;;;;;;;;;;;;;;22.60;100.00;100898.25;5454735;26;20018;-63
2024/05/02 08:32:36;;;;;;;;;;;;;;;22.43;100.00;100890.50;5434335;26;19960;-61
2024/05/02 08:35:01;;;;;;;;;;;;;;;22.79;100.00;100887.13;5431653;26;19959;-62
2024/05/02 08:37:29;;;;;;;;;;;;;;;22.82;100.00;100884.38;5422455;26;20360;-63
2024/05/02 08:39:54;;;;;;;;;;;;;;;23.12;100.00;100904.38;5467432;26;19958;-63
2024/05/02 08:42:19;;;;;;;;;;;;;;;22.80;100.00;100885.31;5475940;26;19958;-64
2024/05/02 08:44:44;;;;;;;;;;;;;;;22.96;100.00;100891.25;5448720;26;19936;-61
2024/05/02 08:47:11;;;;;;;;;;;;;;;23.26;100.00;100890.59;5447601;26;19935;-63
2024/05/02 08:49:36;;;;;;;;;;;;;;;23.00;100.00;100882.19;5459724;26;19958;-60
2024/05/02 08:52:02;;;;;;;;;;;;;;;23.23;100.00;100882.56;5468208;26;20615;-61
2024/05/02 08:54:28;;;;;;;;;;;;;;;23.38;100.00;100884.91;5459327;26;19928;-61
2024/05/02 08:56:56;;;;;;;;;;;;;;;23.06;100.00;100882.03;5454929;26;20047;-62
2024/05/02 08:59:26;;;;;;;;;;;;;;;23.15;100.00;100881.84;5448222;26;19982;-63
2024/05/02 09:01:52;;;;;;;;;;;;;;;22.94;100.00;100882.31;5438595;26;20017;-63
2024/05/02 09:04:17;;;;;;;;;;;;;;;23.05;100.00;100880.25;5412425;26;19970;-62
2024/05/02 09:06:43;;;;;;;;;;;;;;;23.38;100.00;100868.72;5436790;26;20303;-62
2024/05/02 09:09:08;;;;;;;;;;;;;;;23.47;100.00;100873.91;5428310;26;19935;-64
2024/05/02 09:11:36;;;;;;;;;;;;;;;23.58;100.00;100855.66;5446171;26;19936;-62
2024/05/02 09:14:01;;;;;;;;;;;;;;;23.48;100.00;100870.28;5412654;26;20015;-63
2024/05/02 09:16:27;;;;;;;;;;;;;;;23.47;100.00;100862.22;5426719;26;20254;-66
2024/05/02 09:18:52;;;;;;;;;;;;;;;23.99;100.00;100859.16;5438423;26;20366;-64
2024/05/02 09:21:18;;;;;;;;;;;;;;;23.99;100.00;100860.97;5427522;26;19929;-64
2024/05/02 09:23:48;;;;;;;;;;;;;;;23.82;100.00;100864.09;5462767;26;19929;-61
2024/05/02 09:26:13;;;;;;;;;;;;;;;24.12;100.00;100855.19;5412000;26;19975;-62
2024/05/02 09:28:38;;;;;;;;;;;;;;;24.12;100.00;100863.28;5439848;26;19928;-63
2024/05/02 09:31:04;;;;;;;;;;;;;;;23.34;100.00;100869.72;5441567;26;19945;-62
2024/05/02 09:33:30;;;;;;;;;;;;;;;23.50;100.00;100873.84;5391576;26;19929;-64
2024/05/02 09:35:56;;;;;;;;;;;;;;;23.75;100.00;100851.66;5446386;26;20372;-62
2024/05/02 09:38:23;;;;;;;;;;;;;;;23.71;100.00;100855.38;5432461;26;20022;-64
2024/05/02 09:40:51;;;;;;;;;;;;;;;23.89;100.00;100857.63;5415658;26;20385;-64
2024/05/02 09:43:18;;;;;;;;;;;;;;;23.77;100.00;100855.22;5429278;26;20260;-64
2024/05/02 09:45:48;;;;;;;;;;;;;;;23.64;100.00;100849.25;5449269;26;20369;-62
2024/05/02 09:48:16;;;;;;;;;;;;;;;23.54;100.00;100859.41;5427418;26;20302;-61
2024/05/02 09:50:47;;;;;;;;;;;;;;;23.71;100.00;100844.59;5445863;26;19935;-63
2024/05/02 09:53:13;;;;;;;;;;;;;;;24.04;100.00;100846.41;5443346;26;20653;-62
2024/05/02 09:55:38;;;;;;;;;;;;;;;24.40;100.00;100847.25;5411948;26;19929;-62
2024/05/02 09:58:04;;;;;;;;;;;;;;;24.35;100.00;100834.81;5423090;26;19959;-61
2024/05/02 10:00:30;;;;;;;;;;;;;;;24.10;100.00;100837.25;5447145;26;19944;-62
2024/05/02 10:02:56;;;;;;;;;;;;;;;24.16;100.00;100840.69;5414312;26;20323;-61
2024/05/02 10:05:22;;;;;;;;;;;;;;;24.38;100.00;100829.31;5472292;26;19932;-63
2024/05/02 10:07:48;;;;;;;;;;;;;;;24.64;100.00;100829.44;5446118;26;20419;-64
2024/05/02 10:10:13;;;;;;;;;;;;;;;24.83;100.00;100816.25;5421617;26;19966;-62
2024/05/02 10:12:48;;;;;;;;;;;;;;;24.98;100.00;100816.72;5446599;26;19940;-64
2024/05/02 10:15:18;;;;;;;;;;;;;;;25.26;100.00;100821.28;5421758;26;19935;-62
2024/05/02 10:17:46;;;;;;;;;;;;;;;25.14;100.00;100813.53;5446257;26;20405;-63
2024/05/02 10:20:11;;;;;;;;;;;;;;;25.01;100.00;100828.38;5472011;26;20047;-62
2024/05/02 10:22:36;;;;;;;;;;;;;;;24.91;100.00;100817.81;5446097;26;19981;-62
2024/05/02 10:25:02;;;;;;;;;;;;;;;25.03;100.00;100815.69;5421745;26;20401;-62
2024/05/02 10:27:27;;;;;;;;;;;;;;;25.08;100.00;100803.81;5456443;26;20303;-65
2024/05/02 10:29:52;;;;;;;;;;;;;;;25.28;100.00;100822.09;5457932;26;19972;-62
2024/05/02 10:32:18;;;;;;;;;;;;;;;25.37;100.00;100810.97;5428263;26;20006;-66
2024/05/02 10:34:44;;;;;;;;;;;;;;;25.14;100.00;100798.19;5465469;26;19965;-63
2024/05/02 10:37:14;;;;;;;;;;;;;;;25.36;100.00;100803.78;5443187;26;19978;-61
2024/05/02 10:39:40;;;;;;;;;;;;;;;25.42;100.00;100814.44;5410943;26;19960;-62
2024/05/02 10:42:06;;;;;;;;;;;;;;;25.22;100.00;100814.19;5411009;26;20012;-63
2024/05/02 10:44:31;;;;;;;;;;;;;;;24.98;100.00;100803.19;5410385;26;19962;-60
2024/05/02 10:46:56;;;;;;;;;;;;;;;24.83;100.00;100798.22;5432033;26;19966;-62
2024/05/02 10:49:22;;;;;;;;;;;;;;;25.48;100.00;100792.53;5479471;26;19963;-61
2024/05/02 10:51:47;;;;;;;;;;;;;;;25.54;100.00;100797.75;5466459;26;19963;-62
2024/05/02 10:54:13;;;;;;;;;;;;;;;25.51;100.00;100796.97;5455956;26;19975;-61
2024/05/02 10:56:39;;;;;;;;;;;;;;;25.42;100.00;100792.78;5467514;26;19961;-60
2024/05/02 10:59:04;;;;;;;;;;;;;;;25.52;100.00;100783.41;5445811;26;19991;-66
2024/05/02 11:01:30;;;;;;;;;;;;;;;25.51;100.00;100780.75;5446199;26;20058;-61
2024/05/02 11:03:55;;;;;;;;;;;;;;;25.23;100.00;100791.59;5446152;26;20042;-62
2024/05/02 11:06:20;;;;;;;;;;;;;;;25.18;100.00;100782.75;5467649;26;20054;-60
2024/05/02 11:08:45;;;;;;;;;;;;;;;25.29;100.00;100775.16;5446210;26;19968;-63
2024/05/02 11:11:10;;;;;;;;;;;;;;;25.55;100.00;100783.28;5446122;26;20042;-62
2024/05/02 11:13:36;;;;;;;;;;;;;;;25.78;100.00;100770.84;5417317;26;20382;-63
2024/05/02 11:16:01;;;;;;;;;;;;;;;25.39;100.00;100771.22;5446007;26;19990;-62
2024/05/02 11:18:27;;;;;;;;;;;;;;;25.48;100.00;100772.72;5445497;26;19963;-63
2024/05/02 11:21:11;;;;;;;;;;;;;;;25.38;100.00;100764.03;5460017;26;20664;-64
2024/05/02 11:23:38;;;;;;;;;;;;;;;25.61;100.00;100755.16;5438481;26;19969;-62
2024/05/02 11:26:06;;;;;;;;;;;;;;;25.75;100.00;100757.41;5424823;26;19992;-62
2024/05/02 11:28:32;;;;;;;;;;;;;;;26.04;100.00;100737.38;5445343;26;19971;-61
2024/05/02 11:30:58;;;;;;;;;;;;;;;26.11;100.00;100756.09;5458033;26;19963;-65
2024/05/02 11:33:23;;;;;;;;;;;;;;;25.98;100.00;100758.31;5427010;26;19965;-63
2024/05/02 11:35:49;;;;;;;;;;;;;;;26.42;100.00;100757.69;5409462;26;20376;-64
2024/05/02 11:38:14;;;;;;;;;;;;;;;26.33;100.00;100751.66;5409973;26;19962;-61
2024/05/02 11:40:39;;;;;;;;;;;;;;;26.26;100.00;100755.50;5409635;26;19966;-63
2024/05/02 11:43:04;;;;;;;;;;;;;;;26.20;100.00;100755.72;5409727;26;19964;-61
2024/05/02 11:45:29;;;;;;;;;;;;;;;26.33;100.00;100740.81;5410004;26;19993;-62
2024/05/02 11:47:55;;;;;;;;;;;;;;;26.34;100.00;100742.56;5417236;26;19966;-63
2024/05/02 11:50:20;;;;;;;;;;;;;;;26.29;100.00;100744.59;5421068;26;20422;-64
2024/05/02 11:52:46;;;;;;;;;;;;;;;26.02;100.00;100740.16;5416659;26;20014;-63
2024/05/02 11:55:11;;;;;;;;;;;;;;;26.27;100.00;100735.59;5408538;26;20502;-63
2024/05/02 11:57:36;;;;;;;;;;;;;;;26.26;100.00;100728.41;5408931;26;20416;-62
2024/05/02 12:00:02;;;;;;;;;;;;;;;26.16;100.00;100731.50;5422529;26;19974;-63
2024/05/02 12:02:27;;;;;;;;;;;;;;;26.20;100.00;100723.22;5410757;26;19974;-64
2024/05/02 12:04:52;;;;;;;;;;;;;;;26.53;100.00;100722.91;5408371;26;19968;-63
2024/05/02 12:07:17;;;;;;;;;;;;;;;26.75;100.00;100715.69;5412130;26;20033;-63
2024/05/02 12:09:43;;;;;;;;;;;;;;;26.47;100.00;100710.50;5418935;26;19986;-62
2024/05/02 12:12:08;;;;;;;;;;;;;;;26.26;100.00;100712.16;5434968;26;20304;-64
2024/05/02 12:14:33;;;;;;;;;;;;;;;26.62;100.00;100719.84;5415036;26;20015;-63
2024/05/02 12:17:02;;;;;;;;;;;;;;;26.55;100.00;100721.91;5422881;26;20049;-62
2024/05/02 12:19:27;;;;;;;;;;;;;;;26.52;100.00;100718.41;5412162;26;19979;-63